createdAt,value
2022-10-20T00:00:31.156Z,2.93
2022-10-20T00:03:18.066Z,5.33
2022-10-20T00:06:14.147Z,2.50
2022-10-20T00:09:03.780Z,2.53
2022-10-20T00:11:50.740Z,4.00
2022-10-20T00:14:38.509Z,2.37
2022-10-20T00:17:25.422Z,3.10
2022-10-20T00:20:12.416Z,2.60
2022-10-20T00:22:59.345Z,3.30
2022-10-20T00:25:46.531Z,3.37
2022-10-20T00:28:33.969Z,2.60
2022-10-20T00:31:23.032Z,3.30
2022-10-20T00:34:10.220Z,3.43
2022-10-20T00:36:57.125Z,2.20
2022-10-20T00:39:44.038Z,4.67
2022-10-20T00:42:31.017Z,3.83
2022-10-20T00:45:21.216Z,3.93
2022-10-20T00:48:18.661Z,3.60
2022-10-20T00:51:05.943Z,2.23
2022-10-20T00:54:00.191Z,4.40
2022-10-20T00:56:49.793Z,2.77
2022-10-20T00:59:37.304Z,2.87
2022-10-20T01:02:24.353Z,2.27
2022-10-20T01:05:12.722Z,3.27
2022-10-20T01:08:01.515Z,2.40
2022-10-20T01:11:14.573Z,3.50
2022-10-20T01:14:14.667Z,2.40
2022-10-20T01:17:08.501Z,2.77
2022-10-20T01:19:58.508Z,4.00
2022-10-20T01:23:19.816Z,3.60
2022-10-20T01:26:33.951Z,3.80
2022-10-20T01:29:28.752Z,1.83
2022-10-20T01:32:46.257Z,4.50
2022-10-20T01:35:57.732Z,3.97
2022-10-20T01:38:55.135Z,3.47
2022-10-20T01:41:49.329Z,3.57
2022-10-20T01:44:39.328Z,2.03
2022-10-20T01:47:28.405Z,2.50
2022-10-20T01:50:17.060Z,2.80
2022-10-20T01:53:04.565Z,4.40
2022-10-20T01:55:56.015Z,3.63
2022-10-20T01:59:08.035Z,2.70
2022-10-20T02:01:54.943Z,2.00
2022-10-20T02:04:56.428Z,3.50
2022-10-20T02:07:43.606Z,1.80
2022-10-20T02:10:40.552Z,2.73
2022-10-20T02:13:30.341Z,3.27
2022-10-20T02:16:24.112Z,2.40
2022-10-20T02:19:13.881Z,2.30
2022-10-20T02:22:02.032Z,2.27
2022-10-20T02:24:49.327Z,2.27
2022-10-20T02:27:39.207Z,1.67
2022-10-20T02:30:26.229Z,2.43
2022-10-20T02:33:14.428Z,3.80
2022-10-20T02:36:06.348Z,2.03
2022-10-20T02:38:53.568Z,2.17
2022-10-20T02:41:40.469Z,2.13
2022-10-20T02:44:27.363Z,3.17
2022-10-20T02:47:14.344Z,2.10
2022-10-20T02:50:02.180Z,3.00
2022-10-20T02:52:49.122Z,2.63
2022-10-20T02:55:36.020Z,3.27
2022-10-20T02:58:22.916Z,2.37
2022-10-20T03:01:09.905Z,2.23
2022-10-20T03:03:59.638Z,2.60
2022-10-20T03:06:46.705Z,2.97
2022-10-20T03:09:33.648Z,1.90
2022-10-20T03:12:20.582Z,5.93
2022-10-20T03:15:07.685Z,1.90
2022-10-20T03:17:54.614Z,1.70
2022-10-20T03:20:41.493Z,3.70
2022-10-20T03:23:28.389Z,2.77
2022-10-20T03:26:15.386Z,1.90
2022-10-20T03:29:02.299Z,1.93
2022-10-20T03:34:41.058Z,2.37
2022-10-20T03:37:28.052Z,3.37
2022-10-20T03:40:15.050Z,2.50
2022-10-20T03:43:01.973Z,2.73
2022-10-20T03:45:48.912Z,2.83
2022-10-20T03:48:36.753Z,3.13
2022-10-20T03:51:23.809Z,1.80
2022-10-20T03:54:10.739Z,2.70
2022-10-20T03:56:57.650Z,3.37
2022-10-20T03:59:44.570Z,2.40
2022-10-20T04:02:46.116Z,4.00
2022-10-20T04:05:33.059Z,5.23
2022-10-20T04:08:20.010Z,3.47
2022-10-20T04:11:07.181Z,4.93
2022-10-20T04:13:54.604Z,2.80
2022-10-20T04:16:42.047Z,2.80
2022-10-20T04:19:28.972Z,3.50
2022-10-20T04:22:15.943Z,2.57
2022-10-20T04:25:02.952Z,2.63
2022-10-20T04:27:49.861Z,3.30
2022-10-20T04:30:38.937Z,3.63
2022-10-20T04:33:25.904Z,3.57
2022-10-20T04:36:13.416Z,3.73
2022-10-20T04:39:00.315Z,2.13
2022-10-20T04:41:47.269Z,3.70
2022-10-20T04:44:34.211Z,1.90
2022-10-20T04:47:21.595Z,3.17
2022-10-20T04:50:09.166Z,3.10
2022-10-20T04:52:56.073Z,4.53
2022-10-20T04:55:43.004Z,2.40
2022-10-20T04:58:29.954Z,5.50
2022-10-20T05:01:17.478Z,2.43
2022-10-20T05:04:04.506Z,2.90
2022-10-20T05:06:51.429Z,3.13
2022-10-20T05:09:38.324Z,2.60
2022-10-20T05:12:28.018Z,2.40
2022-10-20T05:15:15.442Z,4.80
2022-10-20T05:18:02.374Z,2.50
2022-10-20T05:21:07.808Z,2.20
2022-10-20T05:23:57.416Z,3.60
2022-10-20T05:26:44.384Z,2.90
2022-10-20T05:29:31.416Z,3.97
2022-10-20T05:32:18.336Z,2.83
2022-10-20T05:35:05.620Z,3.87
2022-10-20T05:37:52.864Z,2.97
2022-10-20T05:40:39.748Z,3.80
2022-10-20T05:43:26.704Z,2.13
2022-10-20T05:46:13.595Z,3.47
2022-10-20T05:49:02.806Z,3.40
2022-10-20T05:51:49.721Z,4.53
2022-10-20T05:54:36.616Z,2.70
2022-10-20T05:57:23.504Z,2.43
2022-10-20T06:00:11.280Z,2.67
2022-10-20T06:02:58.350Z,3.67
2022-10-20T06:05:45.280Z,3.83
2022-10-20T06:08:33.773Z,2.60
2022-10-20T06:11:21.469Z,4.80
2022-10-20T06:14:09.233Z,2.30
2022-10-20T06:16:56.688Z,2.53
2022-10-20T06:19:43.646Z,2.40
2022-10-20T06:22:30.577Z,2.70
2022-10-20T06:25:17.485Z,3.77
2022-10-20T06:28:04.577Z,3.13
2022-10-20T06:30:51.472Z,4.93
2022-10-20T06:33:38.889Z,4.03
2022-10-20T06:36:27.004Z,3.40
2022-10-20T06:39:19.009Z,3.00
2022-10-20T06:42:09.629Z,3.60
2022-10-20T06:44:59.403Z,2.73
2022-10-20T06:47:46.329Z,4.07
2022-10-20T06:50:34.488Z,4.03
2022-10-20T06:53:21.412Z,3.40
2022-10-20T06:56:19.985Z,3.73
2022-10-20T06:59:07.206Z,4.23
2022-10-20T07:01:54.216Z,3.83
2022-10-20T07:04:41.169Z,4.33
2022-10-20T07:07:28.123Z,3.97
2022-10-20T07:10:15.111Z,3.87
2022-10-20T07:13:02.012Z,2.87
2022-10-20T07:15:48.900Z,3.70
2022-10-20T07:18:37.329Z,4.60
2022-10-20T07:21:30.809Z,2.30
2022-10-20T07:24:21.563Z,3.50
2022-10-20T07:27:08.464Z,4.97
2022-10-20T07:29:55.384Z,2.87
2022-10-20T07:32:42.309Z,4.73
2022-10-20T07:35:30.163Z,3.10
2022-10-20T07:38:17.128Z,3.87
2022-10-20T07:41:04.155Z,3.90
2022-10-20T07:43:51.869Z,6.90
2022-10-20T07:46:38.803Z,3.87
2022-10-20T07:49:43.317Z,3.43
2022-10-20T07:52:31.465Z,2.80
2022-10-20T07:55:37.704Z,2.93
2022-10-20T07:58:25.356Z,2.73
2022-10-20T08:01:12.640Z,3.03
2022-10-20T08:03:59.675Z,5.37
2022-10-20T08:06:47.183Z,2.90
2022-10-20T08:09:34.144Z,4.70
2022-10-20T08:12:21.087Z,5.57
2022-10-20T08:15:08.494Z,4.43
2022-10-20T08:17:55.389Z,6.77
2022-10-20T08:20:45.784Z,5.10
2022-10-20T08:23:32.954Z,5.00
2022-10-20T08:26:23.066Z,5.17
2022-10-20T08:29:10.096Z,3.30
2022-10-20T08:31:57.086Z,3.10
2022-10-20T08:34:44.049Z,4.93
2022-10-20T08:37:31.809Z,4.63
2022-10-20T08:40:24.977Z,3.47
2022-10-20T08:43:19.475Z,4.17
2022-10-20T08:46:06.493Z,3.60
2022-10-20T08:48:53.501Z,3.10
2022-10-20T08:51:59.105Z,4.67
2022-10-20T08:54:57.564Z,3.33
2022-10-20T08:57:47.275Z,2.80
2022-10-20T09:00:38.069Z,2.70
2022-10-20T09:03:30.300Z,3.20
2022-10-20T09:06:17.400Z,3.30
2022-10-20T09:09:05.032Z,2.90
2022-10-20T09:11:55.241Z,3.47
2022-10-20T09:14:42.308Z,3.57
2022-10-20T09:17:29.254Z,3.13
2022-10-20T09:20:35.935Z,3.87
2022-10-20T09:23:46.114Z,4.07
2022-10-20T09:26:58.082Z,2.80
2022-10-20T09:29:45.886Z,3.20
2022-10-20T09:32:51.390Z,3.57
2022-10-20T09:35:39.701Z,3.70
2022-10-20T09:38:29.592Z,3.10
2022-10-20T09:41:26.304Z,2.92
2022-10-20T09:44:23.500Z,3.50
2022-10-20T09:47:14.660Z,3.92
2022-10-20T09:50:05.376Z,2.75
2022-10-20T09:52:52.922Z,3.30
2022-10-20T09:55:47.032Z,2.92
2022-10-20T09:58:37.884Z,2.97
2022-10-20T10:01:25.162Z,6.72
2022-10-20T10:04:36.730Z,3.20
2022-10-20T10:07:26.774Z,4.07
2022-10-20T10:10:19.547Z,4.03
2022-10-20T10:13:25.062Z,5.95
2022-10-20T10:16:15.203Z,2.08
2022-10-20T10:19:04.684Z,3.47
2022-10-20T10:21:57.416Z,2.33
2022-10-20T10:24:47.083Z,2.67
2022-10-20T10:27:36.087Z,3.97
2022-10-20T10:30:34.567Z,4.68
2022-10-20T10:33:26.715Z,3.33
2022-10-20T10:36:30.559Z,4.95
2022-10-20T10:39:17.507Z,3.05
2022-10-20T10:42:33.195Z,3.70
2022-10-20T10:45:40.333Z,2.03
2022-10-20T10:48:40.596Z,3.58
2022-10-20T10:52:00.769Z,4.95
2022-10-20T10:54:58.151Z,5.03
2022-10-20T10:57:54.642Z,4.40
2022-10-20T11:01:03.312Z,4.63
2022-10-20T11:03:53.245Z,5.03
2022-10-20T11:06:50.008Z,4.97
2022-10-20T11:09:48.117Z,2.60
2022-10-20T11:13:16.978Z,2.17
2022-10-20T11:16:12.691Z,4.38
2022-10-20T11:19:22.419Z,4.22
2022-10-20T11:22:21.136Z,2.33
2022-10-20T11:25:45.447Z,3.78
2022-10-20T11:28:44.242Z,4.55
2022-10-20T11:31:54.578Z,3.72
2022-10-20T11:35:05.607Z,2.95
2022-10-20T11:38:07.020Z,3.10
2022-10-20T11:41:17.039Z,3.67
2022-10-20T11:44:19.715Z,9.80
2022-10-20T11:47:09.004Z,4.55
2022-10-20T11:49:56.337Z,3.47
2022-10-20T11:52:46.247Z,2.70
2022-10-20T11:56:09.263Z,3.78
2022-10-20T11:59:24.857Z,5.50
2022-10-20T12:02:37.879Z,4.77
2022-10-20T12:05:46.479Z,3.67
2022-10-20T12:08:39.499Z,4.93
2022-10-20T12:11:35.037Z,7.03
2022-10-20T12:14:26.331Z,3.00
2022-10-20T12:17:20.722Z,8.80
2022-10-20T12:20:22.879Z,4.53
2022-10-20T12:24:03.084Z,4.67
2022-10-20T12:27:06.099Z,5.22
2022-10-20T12:29:59.003Z,3.53
2022-10-20T12:33:09.587Z,4.03
2022-10-20T12:36:18.144Z,3.83
2022-10-20T12:39:12.583Z,4.30
2022-10-20T12:42:02.177Z,4.37
2022-10-20T12:44:50.176Z,3.53
2022-10-20T12:47:37.792Z,3.83
2022-10-20T12:50:46.809Z,3.40
2022-10-20T12:53:34.365Z,3.27
2022-10-20T12:56:22.491Z,4.57
2022-10-20T12:59:24.506Z,4.60
2022-10-20T13:02:11.447Z,4.63
2022-10-20T13:05:07.539Z,2.90
2022-10-20T13:07:56.655Z,3.80
2022-10-20T13:10:43.905Z,4.07
2022-10-20T13:13:40.843Z,5.40
2022-10-20T13:16:30.884Z,5.00
2022-10-20T13:19:33.580Z,4.13
2022-10-20T13:22:40.419Z,5.70
2022-10-20T13:25:51.397Z,6.80
2022-10-20T13:28:38.337Z,4.97
2022-10-20T13:31:37.520Z,5.63
2022-10-20T13:34:27.574Z,4.73
2022-10-20T13:37:51.633Z,4.27
2022-10-20T13:40:47.593Z,4.60
2022-10-20T13:44:02.976Z,4.57
2022-10-20T13:47:10.352Z,4.53
2022-10-20T13:50:09.682Z,5.60
2022-10-20T13:53:04.626Z,4.30
2022-10-20T13:56:17.056Z,5.07
2022-10-20T13:59:06.286Z,4.63
2022-10-20T14:02:03.676Z,5.70
2022-10-20T14:05:06.015Z,4.00
2022-10-20T14:07:53.217Z,4.73
2022-10-20T14:10:54.479Z,5.40
2022-10-20T14:13:42.968Z,12.43
2022-10-20T14:16:31.083Z,6.93
2022-10-20T14:19:22.031Z,6.70
2022-10-20T14:22:25.213Z,3.90
2022-10-20T14:25:12.687Z,6.63
2022-10-20T14:28:02.785Z,4.73
2022-10-20T14:30:52.718Z,4.47
2022-10-20T14:33:45.413Z,4.57
2022-10-20T14:36:33.129Z,4.00
2022-10-20T14:39:34.270Z,4.43
2022-10-20T14:42:29.312Z,6.80
2022-10-20T14:45:25.974Z,5.20
2022-10-20T14:48:16.264Z,6.07
2022-10-20T14:51:48.987Z,4.07
2022-10-20T14:54:39.001Z,5.93
2022-10-20T14:57:25.895Z,5.00
2022-10-20T15:00:27.119Z,5.23
2022-10-20T15:03:14.070Z,3.87
2022-10-20T15:06:03.900Z,6.23
2022-10-20T15:08:57.574Z,5.00
2022-10-20T15:11:44.762Z,3.47
2022-10-20T15:14:31.752Z,4.27
2022-10-20T15:17:38.992Z,4.33
2022-10-20T15:20:34.703Z,5.03
2022-10-20T15:23:26.909Z,4.87
2022-10-20T15:26:14.776Z,6.33
2022-10-20T15:29:01.671Z,4.70
2022-10-20T15:31:48.664Z,6.97
2022-10-20T15:34:35.787Z,6.40
2022-10-20T15:37:22.672Z,7.00
2022-10-20T15:40:10.101Z,8.93
2022-10-20T15:42:56.979Z,4.87
2022-10-20T15:45:54.045Z,4.77
2022-10-20T15:48:41.829Z,4.83
2022-10-20T15:51:31.165Z,4.67
2022-10-20T15:54:20.873Z,4.17
2022-10-20T15:57:07.821Z,8.10
2022-10-20T15:59:54.739Z,4.63
2022-10-20T16:02:41.790Z,10.83
2022-10-20T16:05:28.912Z,6.00
2022-10-20T16:11:08.634Z,3.73
2022-10-20T16:13:55.537Z,3.97
2022-10-20T16:16:44.706Z,4.30
2022-10-20T16:19:31.652Z,3.40
2022-10-20T16:22:18.619Z,4.37
2022-10-20T16:25:05.935Z,8.03
2022-10-20T16:27:53.394Z,5.17
2022-10-20T16:30:40.302Z,7.63
2022-10-20T16:33:28.392Z,6.40
2022-10-20T16:36:17.256Z,4.17
2022-10-20T16:39:04.322Z,6.50
2022-10-20T16:41:51.222Z,6.13
2022-10-20T16:44:38.143Z,5.47
2022-10-20T16:47:26.077Z,8.27
2022-10-20T16:50:12.968Z,7.63
2022-10-20T16:52:59.877Z,6.03
2022-10-20T16:55:56.708Z,7.00
2022-10-20T16:58:43.607Z,7.43
2022-10-20T17:01:31.708Z,5.97
2022-10-20T17:04:18.703Z,5.90
2022-10-20T17:07:05.776Z,5.00
2022-10-20T17:09:52.700Z,4.67
2022-10-20T17:12:39.623Z,5.13
2022-10-20T17:15:27.910Z,4.23
2022-10-20T17:18:14.840Z,6.47
2022-10-20T17:21:02.126Z,6.00
2022-10-20T17:23:49.097Z,7.07
2022-10-20T17:26:35.983Z,6.83
2022-10-20T17:29:25.988Z,6.47
2022-10-20T17:32:15.830Z,6.60
2022-10-20T17:35:05.548Z,6.97
2022-10-20T17:37:52.474Z,6.53
2022-10-20T17:40:39.380Z,4.43
2022-10-20T17:43:27.853Z,4.80
2022-10-20T17:46:17.429Z,5.50
2022-10-20T17:49:04.660Z,5.87
2022-10-20T17:51:51.612Z,8.13
2022-10-20T17:54:38.491Z,5.47
2022-10-20T17:57:25.419Z,5.93
2022-10-20T18:00:19.147Z,5.00
2022-10-20T18:03:09.987Z,4.87
2022-10-20T18:05:56.925Z,7.10
2022-10-20T18:08:44.431Z,5.20
2022-10-20T18:11:33.129Z,5.43
2022-10-20T18:14:20.071Z,9.50
2022-10-20T18:17:07.039Z,6.17
2022-10-20T18:19:57.430Z,5.30
2022-10-20T18:22:45.443Z,6.60
2022-10-20T18:25:35.650Z,7.13
2022-10-20T18:28:24.135Z,5.93
2022-10-20T18:31:23.555Z,6.93
2022-10-20T18:34:13.886Z,6.93
2022-10-20T18:37:03.411Z,4.90
2022-10-20T18:39:50.323Z,7.10
2022-10-20T18:42:37.242Z,5.90
2022-10-20T18:45:25.989Z,6.47
2022-10-20T18:48:13.093Z,6.83
2022-10-20T18:51:01.585Z,9.70
2022-10-20T18:53:53.391Z,5.03
2022-10-20T18:56:40.428Z,6.43
2022-10-20T18:59:27.437Z,5.47
2022-10-20T19:02:14.398Z,7.10
2022-10-20T19:05:02.899Z,5.37
2022-10-20T19:07:50.467Z,6.63
2022-10-20T19:10:37.417Z,4.80
2022-10-20T19:13:26.160Z,5.87
2022-10-20T19:16:15.966Z,6.10
2022-10-20T19:19:05.016Z,6.20
2022-10-20T19:21:51.941Z,6.60
2022-10-20T19:24:40.537Z,5.50
2022-10-20T19:27:27.742Z,8.43
2022-10-20T19:30:14.766Z,7.50
2022-10-20T19:33:01.768Z,6.30
2022-10-20T19:35:50.229Z,6.07
2022-10-20T19:38:37.485Z,6.20
2022-10-20T19:41:24.956Z,5.87
2022-10-20T19:44:12.559Z,4.90
2022-10-20T19:46:59.788Z,7.63
2022-10-20T19:49:46.758Z,7.47
2022-10-20T19:52:35.179Z,5.93
2022-10-20T19:55:22.399Z,6.53
2022-10-20T20:00:58.886Z,6.57
2022-10-20T20:03:46.594Z,5.13
2022-10-20T20:06:34.680Z,6.07
2022-10-20T20:09:21.608Z,7.50
2022-10-20T20:12:08.774Z,8.90
2022-10-20T20:14:55.724Z,7.60
2022-10-20T20:17:42.660Z,6.93
2022-10-20T20:20:29.546Z,5.70
2022-10-20T20:23:20.053Z,6.50
2022-10-20T20:26:15.416Z,5.07
2022-10-20T20:29:04.001Z,8.20
2022-10-20T20:31:51.013Z,7.03
2022-10-20T20:34:37.929Z,5.97
2022-10-20T20:37:25.049Z,5.83
2022-10-20T20:40:12.250Z,8.03
2022-10-20T20:42:59.146Z,6.27
2022-10-20T20:45:46.220Z,4.57
2022-10-20T20:48:35.654Z,7.13
2022-10-20T20:51:22.868Z,8.00
2022-10-20T20:54:10.299Z,5.77
2022-10-20T20:56:57.569Z,7.97
2022-10-20T20:59:44.504Z,9.63
2022-10-20T21:02:31.413Z,8.63
2022-10-20T21:05:18.333Z,8.93
2022-10-20T21:08:05.501Z,6.07
2022-10-20T21:10:52.463Z,7.13
2022-10-20T21:13:40.744Z,11.30
2022-10-20T21:16:34.342Z,10.73
2022-10-20T21:19:21.863Z,7.60
2022-10-20T21:22:08.832Z,9.43
2022-10-20T21:24:55.740Z,7.10
2022-10-20T21:27:42.631Z,6.97
2022-10-20T21:33:21.513Z,8.23
2022-10-20T21:36:11.390Z,6.30
2022-10-20T21:38:59.278Z,8.63
2022-10-20T21:41:48.387Z,9.97
2022-10-20T21:44:35.296Z,7.63
2022-10-20T21:47:22.204Z,8.47
2022-10-20T21:50:09.114Z,7.53
2022-10-20T21:52:56.086Z,7.07
2022-10-20T21:55:42.983Z,7.37
2022-10-20T21:58:29.914Z,8.13
2022-10-20T22:01:19.843Z,7.37
2022-10-20T22:04:06.771Z,6.90
2022-10-20T22:06:54.449Z,6.90
2022-10-20T22:09:41.369Z,8.43
2022-10-20T22:12:28.315Z,8.67
2022-10-20T22:15:15.289Z,11.07
2022-10-20T22:18:02.174Z,8.90
2022-10-20T22:20:49.077Z,8.30
2022-10-20T22:23:36.001Z,10.37
2022-10-20T22:26:25.719Z,7.30
2022-10-20T22:29:13.074Z,6.63
2022-10-20T22:31:59.978Z,7.30
2022-10-20T22:34:46.897Z,6.67
2022-10-20T22:37:33.795Z,6.43
2022-10-20T22:40:20.724Z,7.60
2022-10-20T22:43:07.676Z,8.87
2022-10-20T22:45:54.598Z,6.50
2022-10-20T22:48:41.573Z,6.83
2022-10-20T22:51:28.543Z,7.23
2022-10-20T22:54:15.452Z,7.27
2022-10-20T22:57:02.348Z,7.17
2022-10-20T22:59:49.240Z,8.73
2022-10-20T23:02:36.361Z,9.77
2022-10-20T23:05:23.950Z,9.20
2022-10-20T23:08:10.845Z,9.43
2022-10-20T23:10:58.704Z,10.50
2022-10-20T23:13:47.226Z,9.10
2022-10-20T23:16:34.140Z,8.20
2022-10-20T23:19:21.195Z,8.50
2022-10-20T23:22:08.104Z,8.27
2022-10-20T23:24:55.025Z,8.53
2022-10-20T23:27:41.959Z,8.40
2022-10-20T23:30:28.913Z,10.23
2022-10-20T23:33:16.220Z,8.17
2022-10-20T23:36:03.680Z,8.33
2022-10-20T23:38:50.597Z,9.70
2022-10-20T23:41:37.524Z,8.97
2022-10-20T23:44:24.534Z,7.07
2022-10-20T23:47:11.481Z,11.00
2022-10-20T23:49:58.439Z,7.93
2022-10-20T23:52:45.337Z,9.47
2022-10-20T23:55:32.224Z,9.77
2022-10-20T23:58:22.116Z,9.67
